createdAt,value
2022-12-27T00:00:51.466Z,0.53
2022-12-27T00:03:17.765Z,0.48
2022-12-27T00:05:44.072Z,0.47
2022-12-27T00:08:10.353Z,0.52
2022-12-27T00:10:36.606Z,0.50
2022-12-27T00:13:02.852Z,0.45
2022-12-27T00:15:29.114Z,0.51
2022-12-27T00:17:55.364Z,0.50
2022-12-27T00:20:21.619Z,0.50
2022-12-27T00:22:47.873Z,0.43
2022-12-27T00:25:14.129Z,0.54
2022-12-27T00:27:40.388Z,0.46
2022-12-27T00:30:06.634Z,0.45
2022-12-27T00:32:32.862Z,0.50
2022-12-27T00:34:59.109Z,0.51
2022-12-27T00:37:25.385Z,0.42
2022-12-27T00:39:51.631Z,0.46
2022-12-27T00:42:17.861Z,0.59
2022-12-27T00:44:44.150Z,0.63
2022-12-27T00:47:10.402Z,0.51
2022-12-27T00:49:36.651Z,0.53
2022-12-27T00:52:02.889Z,0.58
2022-12-27T00:54:29.125Z,0.62
2022-12-27T00:56:55.380Z,0.69
2022-12-27T00:59:21.625Z,0.76
2022-12-27T01:01:47.971Z,0.76
2022-12-27T01:04:14.317Z,0.88
2022-12-27T01:06:40.638Z,0.75
2022-12-27T01:09:06.894Z,0.71
2022-12-27T01:11:33.139Z,0.61
2022-12-27T01:13:59.404Z,0.57
2022-12-27T01:16:25.680Z,0.62
2022-12-27T01:18:51.960Z,0.62
2022-12-27T01:21:18.227Z,0.62
2022-12-27T01:23:44.487Z,0.60
2022-12-27T01:26:10.855Z,0.57
2022-12-27T01:28:37.109Z,0.57
2022-12-27T01:31:03.353Z,0.51
2022-12-27T01:33:29.589Z,0.56
2022-12-27T01:35:55.837Z,0.56
2022-12-27T01:38:22.099Z,0.55
2022-12-27T01:40:48.350Z,0.47
2022-12-27T01:43:14.581Z,0.45
2022-12-27T01:45:40.891Z,0.54
2022-12-27T01:48:07.157Z,0.51
2022-12-27T01:50:33.388Z,0.62
2022-12-27T01:52:59.628Z,0.67
2022-12-27T01:55:25.888Z,0.59
2022-12-27T01:57:52.132Z,0.55
2022-12-27T02:00:18.379Z,0.56
2022-12-27T02:02:44.737Z,0.60
2022-12-27T02:05:11.042Z,0.68
2022-12-27T02:07:37.301Z,0.74
2022-12-27T02:10:03.544Z,0.86
2022-12-27T02:12:29.814Z,0.76
2022-12-27T02:14:56.052Z,0.83
2022-12-27T02:17:22.300Z,0.81
2022-12-27T02:19:48.545Z,0.79
2022-12-27T02:22:14.806Z,0.79
2022-12-27T02:24:41.078Z,0.62
2022-12-27T02:27:07.539Z,0.77
2022-12-27T02:29:33.772Z,0.75
2022-12-27T02:32:00.010Z,0.84
2022-12-27T02:34:26.277Z,0.86
2022-12-27T02:36:52.517Z,0.94
2022-12-27T02:39:18.777Z,0.99
2022-12-27T02:41:45.018Z,0.91
2022-12-27T02:44:11.275Z,0.88
2022-12-27T02:46:37.562Z,0.84
2022-12-27T02:49:03.843Z,0.82
2022-12-27T02:51:30.105Z,0.83
2022-12-27T02:53:56.341Z,0.99
2022-12-27T02:56:22.585Z,1.07
2022-12-27T02:58:48.835Z,0.93
2022-12-27T03:01:15.278Z,0.86
2022-12-27T03:03:44.719Z,0.88
2022-12-27T03:06:11.227Z,0.95
2022-12-27T03:08:37.498Z,0.94
2022-12-27T03:11:03.745Z,0.90
2022-12-27T03:13:29.989Z,0.77
2022-12-27T03:15:56.343Z,0.82
2022-12-27T03:18:22.641Z,0.96
2022-12-27T03:20:48.911Z,1.00
2022-12-27T03:23:15.155Z,0.79
2022-12-27T03:25:41.396Z,0.94
2022-12-27T03:28:07.655Z,0.76
2022-12-27T03:30:33.930Z,0.81
2022-12-27T03:33:00.190Z,0.84
2022-12-27T03:35:26.447Z,0.78
2022-12-27T03:37:52.728Z,0.83
2022-12-27T03:40:18.984Z,1.00
2022-12-27T03:42:45.256Z,0.78
2022-12-27T03:45:11.535Z,0.71
2022-12-27T03:47:37.812Z,0.80
2022-12-27T03:50:04.052Z,0.85
2022-12-27T03:52:30.288Z,0.94
2022-12-27T03:54:56.543Z,0.80
2022-12-27T03:57:22.811Z,0.79
2022-12-27T03:59:49.059Z,0.61
2022-12-27T04:02:15.385Z,0.65
2022-12-27T04:04:41.805Z,0.75
2022-12-27T04:07:08.050Z,0.82
2022-12-27T04:09:34.297Z,0.75
2022-12-27T04:12:00.536Z,0.60
2022-12-27T04:14:26.780Z,0.68
2022-12-27T04:16:53.039Z,0.72
2022-12-27T04:19:19.292Z,0.69
2022-12-27T04:21:45.525Z,0.72
2022-12-27T04:24:11.777Z,0.66
2022-12-27T04:26:38.038Z,0.62
2022-12-27T04:29:04.284Z,0.64
2022-12-27T04:31:30.578Z,0.69
2022-12-27T04:33:56.841Z,0.64
2022-12-27T04:36:23.092Z,0.66
2022-12-27T04:38:49.337Z,0.69
2022-12-27T04:41:15.568Z,0.73
2022-12-27T04:43:41.831Z,0.62
2022-12-27T04:46:08.121Z,0.65
2022-12-27T04:48:34.383Z,0.65
2022-12-27T04:51:00.629Z,0.63
2022-12-27T04:53:26.880Z,0.66
2022-12-27T04:55:53.109Z,0.67
2022-12-27T04:58:19.354Z,0.68
2022-12-27T05:00:45.599Z,0.65
2022-12-27T05:03:11.920Z,0.75
2022-12-27T05:05:38.261Z,0.74
2022-12-27T05:08:04.532Z,0.69
2022-12-27T05:10:30.769Z,0.70
2022-12-27T05:12:57.014Z,0.78
2022-12-27T05:15:23.247Z,0.70
2022-12-27T05:17:50.555Z,0.81
2022-12-27T05:20:16.809Z,0.73
2022-12-27T05:22:43.103Z,0.84
2022-12-27T05:25:09.353Z,0.81
2022-12-27T05:27:35.613Z,0.81
2022-12-27T05:30:01.978Z,0.71
2022-12-27T05:32:28.237Z,0.77
2022-12-27T05:34:54.487Z,0.67
2022-12-27T05:37:20.736Z,0.69
2022-12-27T05:39:46.995Z,0.66
2022-12-27T05:42:13.246Z,0.76
2022-12-27T05:44:39.474Z,0.72
2022-12-27T05:47:05.705Z,0.73
2022-12-27T05:49:31.975Z,0.73
2022-12-27T05:51:58.231Z,0.69
2022-12-27T05:54:24.473Z,0.84
2022-12-27T05:56:50.732Z,0.76
2022-12-27T05:59:16.969Z,0.63
2022-12-27T06:01:43.322Z,0.78
2022-12-27T06:04:09.653Z,0.74
2022-12-27T06:06:35.908Z,0.62
2022-12-27T06:09:02.158Z,0.88
2022-12-27T06:11:28.420Z,0.74
2022-12-27T06:13:54.672Z,0.80
2022-12-27T06:16:21.012Z,0.68
2022-12-27T06:18:47.316Z,0.67
2022-12-27T06:21:13.599Z,0.75
2022-12-27T06:23:39.863Z,0.74
2022-12-27T06:26:06.122Z,0.69
2022-12-27T06:28:32.375Z,0.73
2022-12-27T06:30:58.615Z,0.68
2022-12-27T06:33:24.876Z,0.78
2022-12-27T06:35:51.116Z,0.79
2022-12-27T06:38:17.375Z,0.81
2022-12-27T06:40:43.631Z,0.88
2022-12-27T06:43:09.893Z,0.87
2022-12-27T06:45:36.231Z,0.92
2022-12-27T06:48:02.488Z,1.03
2022-12-27T06:50:28.720Z,0.89
2022-12-27T06:52:54.953Z,1.10
2022-12-27T06:55:21.204Z,0.98
2022-12-27T06:57:47.545Z,1.04
2022-12-27T07:00:13.791Z,1.01
2022-12-27T07:02:40.085Z,1.30
2022-12-27T07:05:06.449Z,1.50
2022-12-27T07:07:32.709Z,1.63
2022-12-27T07:09:58.988Z,1.56
2022-12-27T07:12:25.239Z,1.52
2022-12-27T07:14:51.513Z,5.88
2022-12-27T07:17:17.754Z,7.80
2022-12-27T07:19:44.017Z,1.99
2022-12-27T07:22:10.282Z,1.12
2022-12-27T07:24:36.529Z,0.90
2022-12-27T07:27:02.763Z,1.24
2022-12-27T07:29:29.008Z,0.88
2022-12-27T07:31:55.294Z,0.87
2022-12-27T07:34:21.561Z,0.94
2022-12-27T07:36:47.814Z,1.09
2022-12-27T07:39:14.065Z,1.10
2022-12-27T07:41:40.302Z,1.01
2022-12-27T07:44:06.566Z,1.03
2022-12-27T07:46:32.801Z,1.12
2022-12-27T07:48:59.041Z,1.10
2022-12-27T07:51:25.289Z,0.81
2022-12-27T07:53:51.540Z,0.94
2022-12-27T07:56:23.424Z,0.85
2022-12-27T07:58:51.612Z,0.94
2022-12-27T08:01:18.011Z,0.89
2022-12-27T08:03:44.458Z,0.85
2022-12-27T08:06:10.716Z,0.79
2022-12-27T08:08:36.982Z,0.77
2022-12-27T08:11:05.661Z,0.82
2022-12-27T08:13:32.283Z,0.91
2022-12-27T08:15:58.533Z,0.80
2022-12-27T08:18:24.780Z,0.76
2022-12-27T08:20:51.023Z,0.86
2022-12-27T08:23:17.280Z,0.76
2022-12-27T08:25:48.820Z,0.86
2022-12-27T08:28:15.446Z,0.83
2022-12-27T08:30:41.744Z,0.71
2022-12-27T08:33:07.995Z,0.82
2022-12-27T08:35:52.282Z,0.79
2022-12-27T08:38:19.673Z,0.85
2022-12-27T08:40:45.911Z,0.78
2022-12-27T08:43:12.180Z,0.85
2022-12-27T08:45:38.432Z,0.78
2022-12-27T08:48:04.706Z,0.78
2022-12-27T08:50:31.001Z,0.76
2022-12-27T08:52:57.239Z,0.73
2022-12-27T08:55:23.492Z,0.76
2022-12-27T08:57:49.741Z,0.81
2022-12-27T09:00:15.979Z,0.77
2022-12-27T09:02:42.340Z,0.75
2022-12-27T09:05:08.682Z,0.68
2022-12-27T09:07:34.937Z,0.61
2022-12-27T09:10:01.215Z,0.51
2022-12-27T09:12:27.471Z,0.77
2022-12-27T09:14:53.706Z,0.65
2022-12-27T09:17:19.961Z,0.66
2022-12-27T09:19:46.214Z,0.70
2022-12-27T09:22:12.453Z,0.61
2022-12-27T09:24:38.709Z,0.50
2022-12-27T09:27:04.956Z,0.72
2022-12-27T09:29:31.195Z,0.58
2022-12-27T09:31:57.445Z,0.52
2022-12-27T09:34:23.685Z,0.66
2022-12-27T09:36:49.923Z,0.61
2022-12-27T09:39:16.183Z,0.57
2022-12-27T09:44:28.641Z,0.49
2022-12-27T09:46:54.866Z,0.52
2022-12-27T09:49:21.099Z,0.61
2022-12-27T09:51:47.410Z,0.60
2022-12-27T09:54:13.666Z,0.58
2022-12-27T09:57:09.997Z,0.53
2022-12-27T09:59:26.122Z,0.62
2022-12-27T10:01:52.474Z,0.55
2022-12-27T10:04:18.836Z,0.41
2022-12-27T10:06:45.192Z,0.49
2022-12-27T10:09:11.468Z,0.52
2022-12-27T10:11:37.717Z,0.45
2022-12-27T10:14:03.976Z,0.39
2022-12-27T10:16:30.253Z,0.45
2022-12-27T10:18:56.502Z,0.42
2022-12-27T10:21:22.738Z,0.41
2022-12-27T10:23:48.989Z,0.46
2022-12-27T10:26:15.241Z,0.53
2022-12-27T10:28:41.500Z,0.54
2022-12-27T10:31:07.836Z,0.45
2022-12-27T10:33:34.161Z,0.52
2022-12-27T10:36:00.400Z,0.54
2022-12-27T10:38:26.656Z,0.55
2022-12-27T10:40:52.927Z,0.65
2022-12-27T10:43:19.187Z,0.57
2022-12-27T10:45:45.465Z,0.57
2022-12-27T10:48:11.711Z,0.52
2022-12-27T10:50:37.944Z,0.55
2022-12-27T10:53:04.185Z,0.54
2022-12-27T10:55:30.449Z,0.59
2022-12-27T10:57:56.720Z,0.60
2022-12-27T11:00:22.976Z,0.73
2022-12-27T11:02:49.332Z,0.63
2022-12-27T11:05:15.659Z,0.70
2022-12-27T11:07:41.893Z,0.59
2022-12-27T11:10:08.141Z,0.58
2022-12-27T11:12:34.398Z,0.69
2022-12-27T11:15:00.664Z,0.68
2022-12-27T11:17:26.908Z,0.54
2022-12-27T11:19:53.158Z,0.73
2022-12-27T11:22:19.417Z,0.67
2022-12-27T11:24:45.680Z,0.83
2022-12-27T11:27:11.954Z,0.71
2022-12-27T11:29:38.207Z,0.73
2022-12-27T11:32:04.463Z,0.73
2022-12-27T11:34:30.727Z,0.82
2022-12-27T11:36:56.971Z,0.81
2022-12-27T11:39:23.232Z,0.65
2022-12-27T11:41:49.481Z,0.72
2022-12-27T11:44:15.724Z,0.70
2022-12-27T11:46:42.037Z,0.73
2022-12-27T11:49:08.281Z,0.74
2022-12-27T11:51:34.531Z,0.67
2022-12-27T11:54:00.894Z,0.67
2022-12-27T11:56:27.149Z,0.86
2022-12-27T11:58:53.400Z,0.90
2022-12-27T12:01:19.698Z,0.79
2022-12-27T12:03:45.998Z,0.74
2022-12-27T12:06:12.255Z,0.95
2022-12-27T12:08:38.503Z,0.76
2022-12-27T12:11:04.778Z,9.36
2022-12-27T12:13:31.021Z,2.73
2022-12-27T12:15:57.296Z,0.50
2022-12-27T12:18:23.558Z,0.53
2022-12-27T12:20:51.090Z,0.51
2022-12-27T12:23:17.551Z,0.50
2022-12-27T12:25:43.788Z,0.47
2022-12-27T12:28:38.511Z,0.55
2022-12-27T12:30:56.257Z,0.58
2022-12-27T12:33:22.505Z,0.47
2022-12-27T12:35:48.756Z,0.53
2022-12-27T12:38:15.018Z,0.55
2022-12-27T12:40:41.261Z,0.65
2022-12-27T12:43:07.499Z,0.64
2022-12-27T12:45:33.952Z,0.63
2022-12-27T12:48:00.246Z,0.68
2022-12-27T12:50:26.508Z,0.79
2022-12-27T12:52:52.759Z,0.79
2022-12-27T12:55:19.014Z,0.74
2022-12-27T12:57:45.250Z,0.83
2022-12-27T13:00:11.512Z,0.57
2022-12-27T13:02:37.901Z,0.63
2022-12-27T13:05:04.282Z,0.61
2022-12-27T13:07:36.070Z,0.77
2022-12-27T13:10:05.587Z,0.78
2022-12-27T13:12:31.820Z,0.78
2022-12-27T13:14:58.074Z,0.77
2022-12-27T13:17:24.373Z,0.77
2022-12-27T13:19:50.624Z,0.74
2022-12-27T13:22:16.893Z,0.90
2022-12-27T13:24:43.141Z,0.76
2022-12-27T13:27:09.388Z,0.71
2022-12-27T13:29:35.647Z,0.78
2022-12-27T13:32:01.902Z,0.93
2022-12-27T13:34:28.129Z,0.69
2022-12-27T13:36:54.370Z,0.67
2022-12-27T13:39:20.629Z,0.69
2022-12-27T13:41:46.894Z,0.76
2022-12-27T13:44:13.166Z,0.67
2022-12-27T13:46:42.636Z,0.63
2022-12-27T13:49:09.336Z,0.56
2022-12-27T13:51:36.143Z,0.66
2022-12-27T13:54:02.397Z,0.47
2022-12-27T13:56:53.492Z,0.53
2022-12-27T13:59:14.877Z,0.58
2022-12-27T14:01:41.205Z,0.55
2022-12-27T14:04:07.505Z,0.61
2022-12-27T14:06:33.776Z,0.76
2022-12-27T14:09:00.040Z,0.67
2022-12-27T14:11:26.298Z,0.58
2022-12-27T14:13:52.554Z,0.58
2022-12-27T14:16:18.792Z,0.37
2022-12-27T14:18:45.025Z,0.45
2022-12-27T14:21:11.289Z,0.53
2022-12-27T14:23:37.562Z,0.55
2022-12-27T14:26:03.835Z,0.50
2022-12-27T14:28:30.078Z,0.56
2022-12-27T14:30:56.364Z,0.47
2022-12-27T14:33:22.639Z,0.45
2022-12-27T14:35:48.901Z,0.51
2022-12-27T14:38:15.133Z,0.53
2022-12-27T14:40:41.385Z,0.47
2022-12-27T14:43:07.688Z,0.58
2022-12-27T14:45:33.924Z,0.59
2022-12-27T14:48:00.162Z,0.54
2022-12-27T14:50:26.407Z,0.49
2022-12-27T14:52:52.666Z,0.49
2022-12-27T14:55:18.924Z,0.50
2022-12-27T14:57:45.208Z,0.69
2022-12-27T15:00:11.437Z,0.51
2022-12-27T15:02:37.859Z,0.57
2022-12-27T15:05:04.202Z,0.54
2022-12-27T15:07:30.471Z,0.52
2022-12-27T15:09:56.732Z,0.54
2022-12-27T15:12:22.965Z,0.60
2022-12-27T15:14:49.214Z,0.67
2022-12-27T15:17:15.455Z,0.55
2022-12-27T15:19:41.715Z,0.52
2022-12-27T15:22:07.947Z,0.50
2022-12-27T15:24:34.203Z,0.47
2022-12-27T15:27:00.442Z,0.50
2022-12-27T15:29:26.673Z,0.46
2022-12-27T15:31:52.904Z,0.47
2022-12-27T15:34:19.162Z,0.43
2022-12-27T15:36:45.421Z,0.52
2022-12-27T15:39:11.681Z,0.48
2022-12-27T15:41:37.922Z,0.48
2022-12-27T15:44:04.156Z,0.52
2022-12-27T15:46:35.858Z,0.52
2022-12-27T15:49:02.330Z,0.60
2022-12-27T15:51:28.594Z,0.58
2022-12-27T15:53:54.869Z,0.62
2022-12-27T15:56:21.132Z,0.65
2022-12-27T15:58:47.374Z,0.55
2022-12-27T16:01:13.681Z,0.56
2022-12-27T16:03:40.001Z,0.53
2022-12-27T16:06:06.291Z,0.47
2022-12-27T16:08:32.576Z,0.55
2022-12-27T16:10:58.817Z,0.61
2022-12-27T16:13:25.048Z,0.42
2022-12-27T16:15:51.310Z,0.66
2022-12-27T16:18:17.573Z,0.44
2022-12-27T16:20:43.826Z,1.84
2022-12-27T16:23:10.080Z,4.26
2022-12-27T16:25:36.325Z,2.91
2022-12-27T16:28:02.596Z,3.01
2022-12-27T16:30:28.873Z,2.24
2022-12-27T16:32:55.119Z,1.45
2022-12-27T16:35:21.369Z,1.05
2022-12-27T16:37:47.629Z,0.80
2022-12-27T16:40:13.886Z,0.75
2022-12-27T16:42:40.243Z,0.72
2022-12-27T16:45:06.493Z,0.66
2022-12-27T16:47:32.749Z,0.72
2022-12-27T16:49:58.992Z,0.69
2022-12-27T16:52:25.225Z,0.74
2022-12-27T16:54:51.466Z,0.70
2022-12-27T16:57:19.909Z,0.72
2022-12-27T16:59:46.285Z,0.63
2022-12-27T17:02:12.618Z,0.49
2022-12-27T17:04:38.938Z,0.68
2022-12-27T17:07:05.180Z,0.72
2022-12-27T17:09:34.065Z,0.73
2022-12-27T17:12:00.484Z,0.70
2022-12-27T17:14:26.740Z,0.71
2022-12-27T17:16:53.062Z,0.77
2022-12-27T17:19:19.297Z,0.79
2022-12-27T17:21:45.561Z,0.76
2022-12-27T17:24:11.802Z,0.85
2022-12-27T17:26:38.056Z,0.79
2022-12-27T17:29:04.294Z,0.85
2022-12-27T17:31:30.818Z,0.91
2022-12-27T17:33:57.095Z,0.89
2022-12-27T17:36:23.342Z,0.77
2022-12-27T17:38:49.608Z,0.88
2022-12-27T17:41:16.307Z,0.74
2022-12-27T17:43:42.600Z,0.64
2022-12-27T17:46:08.865Z,0.72
2022-12-27T17:48:35.113Z,0.67
2022-12-27T17:51:01.349Z,0.77
2022-12-27T17:53:27.595Z,0.85
2022-12-27T17:55:53.837Z,0.79
2022-12-27T17:58:20.089Z,0.83
2022-12-27T18:00:46.382Z,0.84
2022-12-27T18:03:12.676Z,0.92
2022-12-27T18:05:38.928Z,0.82
2022-12-27T18:08:05.195Z,0.97
2022-12-27T18:10:31.427Z,0.76
2022-12-27T18:12:57.675Z,0.75
2022-12-27T18:15:23.936Z,0.84
2022-12-27T18:17:50.171Z,0.87
2022-12-27T18:20:16.410Z,0.98
2022-12-27T18:22:42.657Z,1.00
2022-12-27T18:25:08.933Z,0.93
2022-12-27T18:27:35.176Z,0.84
2022-12-27T18:30:01.463Z,0.90
2022-12-27T18:32:27.699Z,0.84
2022-12-27T18:34:53.948Z,0.98
2022-12-27T18:37:20.205Z,0.91
2022-12-27T18:39:46.452Z,1.00
2022-12-27T18:42:12.706Z,0.93
2022-12-27T18:44:38.988Z,1.01
2022-12-27T18:47:05.232Z,0.96
2022-12-27T18:49:31.471Z,0.92
2022-12-27T18:51:57.705Z,1.15
2022-12-27T18:54:23.943Z,1.05
2022-12-27T18:56:50.209Z,1.07
2022-12-27T18:59:16.473Z,1.16
2022-12-27T19:01:42.850Z,1.01
2022-12-27T19:04:09.203Z,1.03
2022-12-27T19:06:35.459Z,0.99
2022-12-27T19:09:01.712Z,1.01
2022-12-27T19:11:33.092Z,1.05
2022-12-27T19:14:02.365Z,1.23
2022-12-27T19:16:28.625Z,1.17
2022-12-27T19:18:54.916Z,1.15
2022-12-27T19:21:21.204Z,1.18
2022-12-27T19:23:47.901Z,1.32
2022-12-27T19:26:14.165Z,1.26
2022-12-27T19:28:40.443Z,1.27
2022-12-27T19:31:06.692Z,1.28
2022-12-27T19:33:32.939Z,1.54
2022-12-27T19:35:59.178Z,1.20
2022-12-27T19:38:25.415Z,1.23
2022-12-27T19:40:51.663Z,1.07
2022-12-27T19:43:17.910Z,0.92
2022-12-27T19:45:44.206Z,1.01
2022-12-27T19:48:10.453Z,1.09
2022-12-27T19:50:36.715Z,1.04
2022-12-27T19:53:02.959Z,1.28
2022-12-27T19:55:29.228Z,1.20
2022-12-27T19:57:55.493Z,1.13
2022-12-27T20:00:21.743Z,1.10
2022-12-27T20:02:48.136Z,1.21
2022-12-27T20:05:14.470Z,1.26
2022-12-27T20:07:40.735Z,1.14
2022-12-27T20:10:06.997Z,1.33
2022-12-27T20:12:33.259Z,1.73
2022-12-27T20:14:59.502Z,1.85
2022-12-27T20:17:25.755Z,1.92
2022-12-27T20:19:52.026Z,1.94
2022-12-27T20:22:18.273Z,2.24
2022-12-27T20:24:44.527Z,2.54
2022-12-27T20:27:10.781Z,4.18
2022-12-27T20:29:37.039Z,3.45
2022-12-27T20:32:03.351Z,2.75
2022-12-27T20:34:29.624Z,2.42
2022-12-27T20:36:55.868Z,2.64
2022-12-27T20:39:22.137Z,3.00
2022-12-27T20:41:48.385Z,4.18
2022-12-27T20:44:14.649Z,3.56
2022-12-27T20:46:40.912Z,3.01
2022-12-27T20:49:07.173Z,3.17
2022-12-27T20:51:33.505Z,3.27
2022-12-27T20:53:59.813Z,3.32
2022-12-27T20:56:26.075Z,2.74
2022-12-27T20:58:52.316Z,2.85
2022-12-27T21:01:18.686Z,3.11
2022-12-27T21:03:45.137Z,3.33
2022-12-27T21:06:11.429Z,3.72
2022-12-27T21:08:45.577Z,3.90
2022-12-27T21:11:13.192Z,3.42
2022-12-27T21:13:39.470Z,3.40
2022-12-27T21:16:05.712Z,3.22
2022-12-27T21:18:31.959Z,3.32
2022-12-27T21:20:58.209Z,3.53
2022-12-27T21:23:24.460Z,3.73
2022-12-27T21:25:50.726Z,3.55
2022-12-27T21:28:16.983Z,3.55
2022-12-27T21:30:43.263Z,3.88
2022-12-27T21:33:09.541Z,3.95
2022-12-27T21:35:35.799Z,3.85
2022-12-27T21:38:02.049Z,3.52
2022-12-27T21:40:28.281Z,3.79
2022-12-27T21:42:54.531Z,3.81
2022-12-27T21:45:20.795Z,3.96
2022-12-27T21:47:47.059Z,3.95
2022-12-27T21:50:13.312Z,3.79
2022-12-27T21:52:39.560Z,3.44
2022-12-27T21:55:05.821Z,2.85
2022-12-27T21:57:32.063Z,2.70
2022-12-27T21:59:58.309Z,2.47
2022-12-27T22:02:24.708Z,2.34
2022-12-27T22:04:51.126Z,2.27
2022-12-27T22:07:17.365Z,2.38
2022-12-27T22:09:43.620Z,2.09
2022-12-27T22:12:09.882Z,2.46
2022-12-27T22:14:37.230Z,2.38
2022-12-27T22:17:03.623Z,2.51
2022-12-27T22:19:29.920Z,2.67
2022-12-27T22:21:56.165Z,2.77
2022-12-27T22:24:22.404Z,2.83
2022-12-27T22:26:48.835Z,2.99
2022-12-27T22:29:15.192Z,2.76
2022-12-27T22:31:41.437Z,2.77
2022-12-27T22:34:07.698Z,2.92
2022-12-27T22:36:34.057Z,2.71
2022-12-27T22:39:00.336Z,2.66
2022-12-27T22:41:26.608Z,2.61
2022-12-27T22:43:52.866Z,2.50
2022-12-27T22:46:19.144Z,2.40
2022-12-27T22:48:45.457Z,2.36
2022-12-27T22:51:11.704Z,2.30
2022-12-27T22:53:37.963Z,2.08
2022-12-27T22:56:04.204Z,2.12
2022-12-27T22:58:30.465Z,2.20
2022-12-27T23:00:56.719Z,2.50
2022-12-27T23:03:22.969Z,2.55
2022-12-27T23:05:49.205Z,2.47
2022-12-27T23:08:15.463Z,2.36
2022-12-27T23:10:41.704Z,2.47
2022-12-27T23:13:07.946Z,2.54
2022-12-27T23:15:34.207Z,2.45
2022-12-27T23:18:00.457Z,2.37
2022-12-27T23:20:26.723Z,2.43
2022-12-27T23:22:52.982Z,2.50
2022-12-27T23:25:19.244Z,2.37
2022-12-27T23:27:45.505Z,2.47
2022-12-27T23:30:11.754Z,2.23
2022-12-27T23:32:38.011Z,2.38
2022-12-27T23:35:04.285Z,2.52
2022-12-27T23:37:30.556Z,2.41
2022-12-27T23:39:56.837Z,2.55
2022-12-27T23:42:23.096Z,2.59
2022-12-27T23:44:49.378Z,2.59
2022-12-27T23:47:15.618Z,2.45
2022-12-27T23:49:41.877Z,2.51
2022-12-27T23:52:08.140Z,2.51
2022-12-27T23:54:34.406Z,2.64
2022-12-27T23:57:22.187Z,2.67
2022-12-27T23:59:46.865Z,2.58
